Terminal Aerodrome Forecast
Issued by NWS Portland, OR

Home | Current Version | Previous Version | Text Only | Print | Product List | Glossary On
Versions: 1 2 3 4 5 6 7 8 9 10 11 12 13 14 15 16 17 18 19 20 21 22 23 24
000
FTUS46 KPQR 190520
TAFAST
TAF
KAST 190520Z 1906/2006 21022G30KT 2SM RA BR SCT006 OVC014
     FM190800 20018G26KT 4SM -RA BR OVC015
     FM191200 21012KT P6SM -RA SCT015 BKN040
     FM191700 20015G25KT P6SM -RA SCT015 BKN020
     FM200200 21010G17KT P6SM -SHRA SCT020 BKN050=

USA.gov is the U.S. government's official web portal to all federal, state and local government web resources and services.